This is the latest recevied weather packets stored in our database for station/object OE5OVL-13. If no packets are shown the sender has not sent any weather packets the latest 10 day(s).
| Time | Temp. | Humidity | Pressure | Rain* | Wind** | Luminosity | Snow |
|---|---|---|---|---|---|---|---|
| 1776980327 | 10.56° C | 50% | 1021.4 hPa | 0 mm | - | - | - |
| 1776979415 | 11.11° C | 49% | 1021.3 hPa | 0 mm | - | - | - |
| 1776978503 | 11.11° C | 50% | 1021.3 hPa | 0 mm | - | - | - |
| 1776976680 | 11.67° C | 48% | 1021.1 hPa | 0 mm | - | - | - |
| 1776975768 | 11.67° C | 49% | 1021.1 hPa | 0 mm | - | - | - |
| 1776974856 | 12.22° C | 47% | 1021 hPa | 0 mm | - | - | - |
| 1776973944 | 12.78° C | 45% | 1020.8 hPa | 0 mm | - | - | - |
| 1776973033 | 13.33° C | 42% | 1020.7 hPa | 0 mm | - | - | - |
| 1776972121 | 13.89° C | 40% | 1020.5 hPa | 0 mm | - | - | - |
| 1776970298 | 16.11° C | 35% | 1020.3 hPa | 0 mm | - | - | - |
| 1776969386 | 16.67° C | 31% | 1020.1 hPa | 0 mm | - | - | - |
| 1776968474 | 17.22° C | 30% | 1020 hPa | 0 mm | - | - | - |
| 1776967564 | 17.78° C | 29% | 1019.8 hPa | 0 mm | - | - | - |
| 1776966650 | 18.33° C | 28% | 1019.7 hPa | 0 mm | - | - | - |
| 1776965739 | 19.44° C | 27% | 1019.7 hPa | 0 mm | - | - | - |
| 1776964827 | 23.33° C | 21% | 1019.6 hPa | 0 mm | - | - | - |
| 1776963915 | 26.67° C | 19% | 1019.5 hPa | 0 mm | - | - | - |
| 1776962092 | 26.67° C | 19% | 1019.7 hPa | 0 mm | - | - | - |
| 1776961180 | 26.11° C | 19% | 1019.7 hPa | 0 mm | - | - | - |
| 1776960268 | 25.56° C | 19% | 1020 hPa | 0 mm | - | - | - |
| 1776959356 | 25.56° C | 20% | 1020.1 hPa | 0 mm | - | - | - |
| 1776958445 | 26.11° C | 20% | 1020.2 hPa | 0 mm | - | - | - |
| 1776957533 | 24.44° C | 22% | 1020.3 hPa | 0 mm | - | - | - |
| 1776956621 | 23.89° C | 21% | 1020.6 hPa | 0 mm | - | - | - |
| 1776955709 | 25° C | 23% | 1020.5 hPa | 0 mm | - | - | - |
* Rain latest hour (hover to see other rain measurements)
** Current wind speed in m/s (hover to see current wind gust speed)